sensor_id;sensor_type;location;lat;lon;timestamp;temperature;humidity
29729;DHT22;20055;51.498;11.960;2024-01-30T00:00:06;5.50;99.90
29729;DHT22;20055;51.498;11.960;2024-01-30T00:02:32;5.50;99.90
29729;DHT22;20055;51.498;11.960;2024-01-30T00:04:59;5.50;99.90
29729;DHT22;20055;51.498;11.960;2024-01-30T00:07:25;5.60;99.90
29729;DHT22;20055;51.498;11.960;2024-01-30T00:09:51;5.50;99.90
29729;DHT22;20055;51.498;11.960;2024-01-30T00:12:17;5.60;99.90
29729;DHT22;20055;51.498;11.960;2024-01-30T00:14:45;5.60;99.90
29729;DHT22;20055;51.498;11.960;2024-01-30T00:17:11;5.60;99.90
29729;DHT22;20055;51.498;11.960;2024-01-30T00:19:37;5.60;99.90
29729;DHT22;20055;51.498;11.960;2024-01-30T00:22:03;5.60;99.90
29729;DHT22;20055;51.498;11.960;2024-01-30T00:24:30;5.60;99.90
29729;DHT22;20055;51.498;11.960;2024-01-30T00:26:56;5.60;99.90
29729;DHT22;20055;51.498;11.960;2024-01-30T00:29:22;5.70;99.90
29729;DHT22;20055;51.498;11.960;2024-01-30T00:31:49;5.60;99.90
29729;DHT22;20055;51.498;11.960;2024-01-30T00:34:15;5.60;99.90
29729;DHT22;20055;51.498;11.960;2024-01-30T00:36:41;5.60;99.90
29729;DHT22;20055;51.498;11.960;2024-01-30T00:39:07;5.70;99.90
29729;DHT22;20055;51.498;11.960;2024-01-30T00:41:35;5.70;99.90
29729;DHT22;20055;51.498;11.960;2024-01-30T00:44:01;5.70;99.90
29729;DHT22;20055;51.498;11.960;2024-01-30T00:46:27;5.70;99.90
29729;DHT22;20055;51.498;11.960;2024-01-30T00:48:54;5.70;99.90
29729;DHT22;20055;51.498;11.960;2024-01-30T00:51:20;5.70;99.90
29729;DHT22;20055;51.498;11.960;2024-01-30T00:53:47;5.70;99.90
29729;DHT22;20055;51.498;11.960;2024-01-30T00:56:13;5.70;99.90
29729;DHT22;20055;51.498;11.960;2024-01-30T00:58:39;5.70;99.90
29729;DHT22;20055;51.498;11.960;2024-01-30T01:01:06;5.70;99.90
29729;DHT22;20055;51.498;11.960;2024-01-30T01:03:33;5.70;99.90
29729;DHT22;20055;51.498;11.960;2024-01-30T01:05:59;5.70;99.90
29729;DHT22;20055;51.498;11.960;2024-01-30T01:08:26;5.80;99.90
29729;DHT22;20055;51.498;11.960;2024-01-30T01:10:52;5.80;99.90
29729;DHT22;20055;51.498;11.960;2024-01-30T01:13:19;5.80;99.90
29729;DHT22;20055;51.498;11.960;2024-01-30T01:15:45;5.90;99.90
29729;DHT22;20055;51.498;11.960;2024-01-30T01:18:11;5.90;99.90
29729;DHT22;20055;51.498;11.960;2024-01-30T01:20:37;5.90;99.90
29729;DHT22;20055;51.498;11.960;2024-01-30T01:23:03;5.90;99.90
29729;DHT22;20055;51.498;11.960;2024-01-30T01:25:30;5.90;99.90
29729;DHT22;20055;51.498;11.960;2024-01-30T01:27:56;5.90;99.90
29729;DHT22;20055;51.498;11.960;2024-01-30T01:30:23;5.90;99.90
29729;DHT22;20055;51.498;11.960;2024-01-30T01:32:49;5.80;99.90
29729;DHT22;20055;51.498;11.960;2024-01-30T01:35:23;5.80;99.90
29729;DHT22;20055;51.498;11.960;2024-01-30T01:37:51;5.80;99.90
29729;DHT22;20055;51.498;11.960;2024-01-30T01:40:27;5.80;99.90
29729;DHT22;20055;51.498;11.960;2024-01-30T01:42:54;5.80;99.90
29729;DHT22;20055;51.498;11.960;2024-01-30T01:45:21;5.90;99.90
29729;DHT22;20055;51.498;11.960;2024-01-30T01:47:50;5.80;99.90
29729;DHT22;20055;51.498;11.960;2024-01-30T01:50:18;5.90;99.90
29729;DHT22;20055;51.498;11.960;2024-01-30T01:52:47;5.90;99.90
29729;DHT22;20055;51.498;11.960;2024-01-30T01:55:14;5.90;99.90
29729;DHT22;20055;51.498;11.960;2024-01-30T01:57:42;5.90;99.90
29729;DHT22;20055;51.498;11.960;2024-01-30T02:00:09;5.90;99.90
29729;DHT22;20055;51.498;11.960;2024-01-30T02:02:37;5.90;99.90
29729;DHT22;20055;51.498;11.960;2024-01-30T02:05:05;5.90;99.90
29729;DHT22;20055;51.498;11.960;2024-01-30T02:07:31;5.80;99.90
29729;DHT22;20055;51.498;11.960;2024-01-30T02:09:58;5.80;99.90
29729;DHT22;20055;51.498;11.960;2024-01-30T02:12:24;5.80;99.90
29729;DHT22;20055;51.498;11.960;2024-01-30T02:14:50;5.70;99.90
29729;DHT22;20055;51.498;11.960;2024-01-30T02:17:16;5.60;99.90
29729;DHT22;20055;51.498;11.960;2024-01-30T02:19:43;5.50;99.90
29729;DHT22;20055;51.498;11.960;2024-01-30T02:22:10;5.50;99.90
29729;DHT22;20055;51.498;11.960;2024-01-30T02:24:36;5.50;99.90
29729;DHT22;20055;51.498;11.960;2024-01-30T02:27:02;5.40;99.90
29729;DHT22;20055;51.498;11.960;2024-01-30T02:29:29;5.40;99.90
29729;DHT22;20055;51.498;11.960;2024-01-30T02:31:55;5.40;99.90
29729;DHT22;20055;51.498;11.960;2024-01-30T02:34:21;5.40;99.90
29729;DHT22;20055;51.498;11.960;2024-01-30T02:36:47;5.30;99.90
29729;DHT22;20055;51.498;11.960;2024-01-30T02:39:14;5.30;99.90
29729;DHT22;20055;51.498;11.960;2024-01-30T02:41:40;5.20;99.90
29729;DHT22;20055;51.498;11.960;2024-01-30T02:44:06;5.20;99.90
29729;DHT22;20055;51.498;11.960;2024-01-30T02:46:33;5.20;99.90
29729;DHT22;20055;51.498;11.960;2024-01-30T02:48:59;5.10;99.90
29729;DHT22;20055;51.498;11.960;2024-01-30T02:51:25;5.20;99.90
29729;DHT22;20055;51.498;11.960;2024-01-30T02:53:52;5.10;99.90
29729;DHT22;20055;51.498;11.960;2024-01-30T02:56:18;5.10;99.90
29729;DHT22;20055;51.498;11.960;2024-01-30T02:58:44;5.10;99.90
29729;DHT22;20055;51.498;11.960;2024-01-30T03:01:10;5.00;99.90
29729;DHT22;20055;51.498;11.960;2024-01-30T03:03:37;5.10;99.90
29729;DHT22;20055;51.498;11.960;2024-01-30T03:06:03;5.00;99.90
29729;DHT22;20055;51.498;11.960;2024-01-30T03:08:29;5.00;99.90
29729;DHT22;20055;51.498;11.960;2024-01-30T03:10:56;5.00;99.90
29729;DHT22;20055;51.498;11.960;2024-01-30T03:13:22;5.00;99.90
29729;DHT22;20055;51.498;11.960;2024-01-30T03:15:51;4.90;99.90
29729;DHT22;20055;51.498;11.960;2024-01-30T03:18:17;4.90;99.90
29729;DHT22;20055;51.498;11.960;2024-01-30T03:20:44;4.90;99.90
29729;DHT22;20055;51.498;11.960;2024-01-30T03:23:10;4.90;99.90
29729;DHT22;20055;51.498;11.960;2024-01-30T03:25:36;4.90;99.90
29729;DHT22;20055;51.498;11.960;2024-01-30T03:28:02;4.90;99.90
29729;DHT22;20055;51.498;11.960;2024-01-30T03:30:29;4.90;99.90
29729;DHT22;20055;51.498;11.960;2024-01-30T03:32:55;4.90;99.90
29729;DHT22;20055;51.498;11.960;2024-01-30T03:35:21;4.90;99.90
29729;DHT22;20055;51.498;11.960;2024-01-30T03:37:47;4.90;99.90
29729;DHT22;20055;51.498;11.960;2024-01-30T03:40:14;5.00;99.90
29729;DHT22;20055;51.498;11.960;2024-01-30T03:42:41;4.90;99.90
29729;DHT22;20055;51.498;11.960;2024-01-30T03:45:07;4.90;99.90
29729;DHT22;20055;51.498;11.960;2024-01-30T03:47:34;4.80;99.90
29729;DHT22;20055;51.498;11.960;2024-01-30T03:50:00;4.80;99.90
29729;DHT22;20055;51.498;11.960;2024-01-30T03:52:26;4.80;99.90
29729;DHT22;20055;51.498;11.960;2024-01-30T03:54:53;4.90;99.90
29729;DHT22;20055;51.498;11.960;2024-01-30T03:57:19;4.90;99.90
29729;DHT22;20055;51.498;11.960;2024-01-30T03:59:46;4.90;99.90
29729;DHT22;20055;51.498;11.960;2024-01-30T04:02:12;5.00;99.90
29729;DHT22;20055;51.498;11.960;2024-01-30T04:04:38;4.90;99.90
29729;DHT22;20055;51.498;11.960;2024-01-30T04:07:04;4.90;99.90
29729;DHT22;20055;51.498;11.960;2024-01-30T04:09:31;4.80;99.90
29729;DHT22;20055;51.498;11.960;2024-01-30T04:11:58;4.90;99.90
29729;DHT22;20055;51.498;11.960;2024-01-30T04:14:24;4.90;99.90
29729;DHT22;20055;51.498;11.960;2024-01-30T04:16:50;4.80;99.90
29729;DHT22;20055;51.498;11.960;2024-01-30T04:19:17;4.80;99.90
29729;DHT22;20055;51.498;11.960;2024-01-30T04:21:43;4.80;99.90
29729;DHT22;20055;51.498;11.960;2024-01-30T04:24:09;4.70;99.90
29729;DHT22;20055;51.498;11.960;2024-01-30T04:26:35;4.80;99.90
29729;DHT22;20055;51.498;11.960;2024-01-30T04:29:02;4.70;99.90
29729;DHT22;20055;51.498;11.960;2024-01-30T04:31:29;4.70;99.90
29729;DHT22;20055;51.498;11.960;2024-01-30T04:33:55;4.70;99.90
29729;DHT22;20055;51.498;11.960;2024-01-30T04:36:21;4.70;99.90
29729;DHT22;20055;51.498;11.960;2024-01-30T04:38:47;4.80;99.90
29729;DHT22;20055;51.498;11.960;2024-01-30T04:41:13;4.70;99.90
29729;DHT22;20055;51.498;11.960;2024-01-30T04:43:40;4.60;99.90
29729;DHT22;20055;51.498;11.960;2024-01-30T04:46:06;4.50;99.90
29729;DHT22;20055;51.498;11.960;2024-01-30T04:48:32;4.50;99.90
29729;DHT22;20055;51.498;11.960;2024-01-30T04:50:58;4.40;99.90
29729;DHT22;20055;51.498;11.960;2024-01-30T04:53:27;4.40;99.90
29729;DHT22;20055;51.498;11.960;2024-01-30T04:55:53;4.30;99.90
29729;DHT22;20055;51.498;11.960;2024-01-30T04:58:19;4.30;99.90
29729;DHT22;20055;51.498;11.960;2024-01-30T05:00:45;4.30;99.90
29729;DHT22;20055;51.498;11.960;2024-01-30T05:03:14;4.30;99.90
29729;DHT22;20055;51.498;11.960;2024-01-30T05:05:41;4.30;99.90
29729;DHT22;20055;51.498;11.960;2024-01-30T05:08:07;4.30;99.90
29729;DHT22;20055;51.498;11.960;2024-01-30T05:10:33;4.20;99.90
29729;DHT22;20055;51.498;11.960;2024-01-30T05:12:59;4.20;99.90
29729;DHT22;20055;51.498;11.960;2024-01-30T05:15:25;4.10;99.90
29729;DHT22;20055;51.498;11.960;2024-01-30T05:17:52;3.90;99.90
29729;DHT22;20055;51.498;11.960;2024-01-30T05:20:19;4.00;99.90
29729;DHT22;20055;51.498;11.960;2024-01-30T05:22:46;4.00;99.90
29729;DHT22;20055;51.498;11.960;2024-01-30T05:25:13;4.00;99.90
29729;DHT22;20055;51.498;11.960;2024-01-30T05:27:39;4.10;99.90
29729;DHT22;20055;51.498;11.960;2024-01-30T05:30:06;4.10;99.90
29729;DHT22;20055;51.498;11.960;2024-01-30T05:32:32;4.20;99.90
29729;DHT22;20055;51.498;11.960;2024-01-30T05:34:59;4.20;99.90
29729;DHT22;20055;51.498;11.960;2024-01-30T05:37:25;4.20;99.90
29729;DHT22;20055;51.498;11.960;2024-01-30T05:39:51;4.20;99.90
29729;DHT22;20055;51.498;11.960;2024-01-30T05:42:17;4.20;99.90
29729;DHT22;20055;51.498;11.960;2024-01-30T05:44:43;4.20;99.90
29729;DHT22;20055;51.498;11.960;2024-01-30T05:47:10;4.10;99.90
29729;DHT22;20055;51.498;11.960;2024-01-30T05:49:36;4.10;99.90
29729;DHT22;20055;51.498;11.960;2024-01-30T05:52:03;4.10;99.90
29729;DHT22;20055;51.498;11.960;2024-01-30T05:54:30;4.20;99.90
29729;DHT22;20055;51.498;11.960;2024-01-30T05:56:56;4.10;99.90
29729;DHT22;20055;51.498;11.960;2024-01-30T05:59:22;4.10;99.90
29729;DHT22;20055;51.498;11.960;2024-01-30T06:01:48;4.10;99.90
29729;DHT22;20055;51.498;11.960;2024-01-30T06:04:15;4.10;99.90
29729;DHT22;20055;51.498;11.960;2024-01-30T06:06:41;4.10;99.90
29729;DHT22;20055;51.498;11.960;2024-01-30T06:09:07;4.10;99.90
29729;DHT22;20055;51.498;11.960;2024-01-30T06:11:35;4.10;99.90
29729;DHT22;20055;51.498;11.960;2024-01-30T06:14:01;4.00;99.90
29729;DHT22;20055;51.498;11.960;2024-01-30T06:16:28;4.00;99.90
29729;DHT22;20055;51.498;11.960;2024-01-30T06:18:56;4.00;99.90
29729;DHT22;20055;51.498;11.960;2024-01-30T06:21:24;4.10;99.90
29729;DHT22;20055;51.498;11.960;2024-01-30T06:23:50;4.10;99.90
29729;DHT22;20055;51.498;11.960;2024-01-30T06:26:16;4.10;99.90
29729;DHT22;20055;51.498;11.960;2024-01-30T06:28:42;4.20;99.90
29729;DHT22;20055;51.498;11.960;2024-01-30T06:31:08;4.10;99.90
29729;DHT22;20055;51.498;11.960;2024-01-30T06:33:35;4.00;99.90
29729;DHT22;20055;51.498;11.960;2024-01-30T06:36:01;4.00;99.90
29729;DHT22;20055;51.498;11.960;2024-01-30T06:38:27;4.10;99.90
29729;DHT22;20055;51.498;11.960;2024-01-30T06:40:53;4.10;99.90
29729;DHT22;20055;51.498;11.960;2024-01-30T06:43:20;4.10;99.90
29729;DHT22;20055;51.498;11.960;2024-01-30T06:45:46;4.10;99.90
29729;DHT22;20055;51.498;11.960;2024-01-30T06:48:12;4.00;99.90
29729;DHT22;20055;51.498;11.960;2024-01-30T06:50:38;4.00;99.90
29729;DHT22;20055;51.498;11.960;2024-01-30T06:53:04;4.10;99.90
29729;DHT22;20055;51.498;11.960;2024-01-30T06:55:31;4.10;99.90
29729;DHT22;20055;51.498;11.960;2024-01-30T06:57:57;4.10;99.90
29729;DHT22;20055;51.498;11.960;2024-01-30T07:00:23;4.20;99.90
29729;DHT22;20055;51.498;11.960;2024-01-30T07:02:50;4.30;99.90
29729;DHT22;20055;51.498;11.960;2024-01-30T07:05:16;4.20;99.90
29729;DHT22;20055;51.498;11.960;2024-01-30T07:07:43;4.20;99.90
29729;DHT22;20055;51.498;11.960;2024-01-30T07:10:09;4.30;99.90
29729;DHT22;20055;51.498;11.960;2024-01-30T07:12:36;4.20;99.90
29729;DHT22;20055;51.498;11.960;2024-01-30T07:15:02;4.20;99.90
29729;DHT22;20055;51.498;11.960;2024-01-30T07:17:29;4.20;99.90
29729;DHT22;20055;51.498;11.960;2024-01-30T07:19:56;4.20;99.90
29729;DHT22;20055;51.498;11.960;2024-01-30T07:22:22;4.30;99.90
29729;DHT22;20055;51.498;11.960;2024-01-30T07:24:48;4.30;99.90
29729;DHT22;20055;51.498;11.960;2024-01-30T07:27:15;4.40;99.90
29729;DHT22;20055;51.498;11.960;2024-01-30T07:29:43;4.40;99.90
29729;DHT22;20055;51.498;11.960;2024-01-30T07:32:10;4.50;99.90
29729;DHT22;20055;51.498;11.960;2024-01-30T07:34:36;4.50;99.90
29729;DHT22;20055;51.498;11.960;2024-01-30T07:37:02;4.50;99.90
29729;DHT22;20055;51.498;11.960;2024-01-30T07:39:29;4.50;99.90
29729;DHT22;20055;51.498;11.960;2024-01-30T07:41:55;4.50;99.90
29729;DHT22;20055;51.498;11.960;2024-01-30T07:44:22;4.60;99.90
29729;DHT22;20055;51.498;11.960;2024-01-30T07:46:48;4.70;99.90
29729;DHT22;20055;51.498;11.960;2024-01-30T07:49:14;4.70;99.90
29729;DHT22;20055;51.498;11.960;2024-01-30T07:51:40;4.80;99.90
29729;DHT22;20055;51.498;11.960;2024-01-30T07:54:07;4.90;99.90
29729;DHT22;20055;51.498;11.960;2024-01-30T07:56:34;5.00;99.90
29729;DHT22;20055;51.498;11.960;2024-01-30T07:59:00;5.00;99.90
29729;DHT22;20055;51.498;11.960;2024-01-30T08:01:26;5.10;99.90
29729;DHT22;20055;51.498;11.960;2024-01-30T08:03:53;5.10;99.90
29729;DHT22;20055;51.498;11.960;2024-01-30T08:06:19;5.20;99.90
29729;DHT22;20055;51.498;11.960;2024-01-30T08:08:46;5.30;99.90
29729;DHT22;20055;51.498;11.960;2024-01-30T08:11:12;5.40;99.90
29729;DHT22;20055;51.498;11.960;2024-01-30T08:13:39;5.40;99.90
29729;DHT22;20055;51.498;11.960;2024-01-30T08:16:05;5.50;99.90
29729;DHT22;20055;51.498;11.960;2024-01-30T08:18:31;5.60;99.90
29729;DHT22;20055;51.498;11.960;2024-01-30T08:20:58;5.60;99.90
29729;DHT22;20055;51.498;11.960;2024-01-30T08:23:24;5.70;99.90
29729;DHT22;20055;51.498;11.960;2024-01-30T08:25:50;5.70;99.90
29729;DHT22;20055;51.498;11.960;2024-01-30T08:28:16;5.80;99.90
29729;DHT22;20055;51.498;11.960;2024-01-30T08:30:43;5.90;99.90
29729;DHT22;20055;51.498;11.960;2024-01-30T08:33:09;6.00;99.90
29729;DHT22;20055;51.498;11.960;2024-01-30T08:35:35;6.00;99.90
29729;DHT22;20055;51.498;11.960;2024-01-30T08:38:01;6.20;99.90
29729;DHT22;20055;51.498;11.960;2024-01-30T08:40:28;6.30;99.90
29729;DHT22;20055;51.498;11.960;2024-01-30T08:42:54;6.40;99.90
29729;DHT22;20055;51.498;11.960;2024-01-30T08:45:20;6.60;99.90
29729;DHT22;20055;51.498;11.960;2024-01-30T08:47:47;6.70;99.90
29729;DHT22;20055;51.498;11.960;2024-01-30T08:50:13;6.80;99.90
29729;DHT22;20055;51.498;11.960;2024-01-30T08:52:39;6.90;99.90
29729;DHT22;20055;51.498;11.960;2024-01-30T08:55:06;7.00;99.90
29729;DHT22;20055;51.498;11.960;2024-01-30T08:57:32;7.20;99.90
29729;DHT22;20055;51.498;11.960;2024-01-30T08:59:58;7.20;99.90
29729;DHT22;20055;51.498;11.960;2024-01-30T09:02:25;7.20;99.90
29729;DHT22;20055;51.498;11.960;2024-01-30T09:04:51;7.30;99.90
29729;DHT22;20055;51.498;11.960;2024-01-30T09:07:17;7.40;99.90
29729;DHT22;20055;51.498;11.960;2024-01-30T09:09:43;7.40;99.90
29729;DHT22;20055;51.498;11.960;2024-01-30T09:12:10;7.40;99.90
29729;DHT22;20055;51.498;11.960;2024-01-30T09:14:38;7.50;99.90
29729;DHT22;20055;51.498;11.960;2024-01-30T09:17:04;7.60;99.90
29729;DHT22;20055;51.498;11.960;2024-01-30T09:19:31;7.60;99.90
29729;DHT22;20055;51.498;11.960;2024-01-30T09:21:57;7.70;99.90
29729;DHT22;20055;51.498;11.960;2024-01-30T09:24:23;7.70;99.90
29729;DHT22;20055;51.498;11.960;2024-01-30T09:26:49;7.90;99.90
29729;DHT22;20055;51.498;11.960;2024-01-30T09:29:16;8.00;99.90
29729;DHT22;20055;51.498;11.960;2024-01-30T09:31:45;8.10;99.90
29729;DHT22;20055;51.498;11.960;2024-01-30T09:34:12;8.10;99.90
29729;DHT22;20055;51.498;11.960;2024-01-30T09:36:39;8.10;99.90
29729;DHT22;20055;51.498;11.960;2024-01-30T09:39:05;8.10;99.90
29729;DHT22;20055;51.498;11.960;2024-01-30T09:41:33;8.20;99.90
29729;DHT22;20055;51.498;11.960;2024-01-30T09:44:04;8.40;99.90
29729;DHT22;20055;51.498;11.960;2024-01-30T09:46:32;8.40;99.90
29729;DHT22;20055;51.498;11.960;2024-01-30T09:49:00;8.50;99.90
29729;DHT22;20055;51.498;11.960;2024-01-30T09:51:29;8.60;99.90
29729;DHT22;20055;51.498;11.960;2024-01-30T09:53:56;8.80;99.90
29729;DHT22;20055;51.498;11.960;2024-01-30T09:56:22;8.80;99.90
29729;DHT22;20055;51.498;11.960;2024-01-30T09:58:48;8.80;99.90
29729;DHT22;20055;51.498;11.960;2024-01-30T10:01:15;8.90;99.90
29729;DHT22;20055;51.498;11.960;2024-01-30T10:03:44;8.90;99.90
29729;DHT22;20055;51.498;11.960;2024-01-30T10:06:11;9.10;99.90
29729;DHT22;20055;51.498;11.960;2024-01-30T10:08:38;9.10;99.90
29729;DHT22;20055;51.498;11.960;2024-01-30T10:11:04;9.20;99.90
29729;DHT22;20055;51.498;11.960;2024-01-30T10:13:30;9.30;99.90
29729;DHT22;20055;51.498;11.960;2024-01-30T10:15:56;9.40;99.90
29729;DHT22;20055;51.498;11.960;2024-01-30T10:18:24;9.40;99.90
29729;DHT22;20055;51.498;11.960;2024-01-30T10:20:51;9.50;99.90
29729;DHT22;20055;51.498;11.960;2024-01-30T10:23:18;9.40;99.90
29729;DHT22;20055;51.498;11.960;2024-01-30T10:25:45;9.70;99.90
29729;DHT22;20055;51.498;11.960;2024-01-30T10:28:11;9.60;99.90
29729;DHT22;20055;51.498;11.960;2024-01-30T10:30:38;9.60;99.90
29729;DHT22;20055;51.498;11.960;2024-01-30T10:33:04;9.60;99.90
29729;DHT22;20055;51.498;11.960;2024-01-30T10:35:30;9.70;99.90
29729;DHT22;20055;51.498;11.960;2024-01-30T10:37:57;9.60;99.90
29729;DHT22;20055;51.498;11.960;2024-01-30T10:40:27;9.70;99.90
29729;DHT22;20055;51.498;11.960;2024-01-30T10:42:55;9.80;99.90
29729;DHT22;20055;51.498;11.960;2024-01-30T10:45:26;10.00;99.90
29729;DHT22;20055;51.498;11.960;2024-01-30T10:47:55;9.90;99.90
29729;DHT22;20055;51.498;11.960;2024-01-30T10:50:25;10.10;99.90
29729;DHT22;20055;51.498;11.960;2024-01-30T10:52:52;10.10;99.90
29729;DHT22;20055;51.498;11.960;2024-01-30T10:55:21;10.10;99.90
29729;DHT22;20055;51.498;11.960;2024-01-30T10:57:48;10.20;99.90
29729;DHT22;20055;51.498;11.960;2024-01-30T11:00:15;10.20;99.90
29729;DHT22;20055;51.498;11.960;2024-01-30T11:02:46;10.30;99.90
29729;DHT22;20055;51.498;11.960;2024-01-30T11:05:13;10.40;99.90
29729;DHT22;20055;51.498;11.960;2024-01-30T11:07:41;10.50;99.90
29729;DHT22;20055;51.498;11.960;2024-01-30T11:10:08;10.60;99.90
29729;DHT22;20055;51.498;11.960;2024-01-30T11:12:40;10.60;99.90
29729;DHT22;20055;51.498;11.960;2024-01-30T11:15:15;10.70;99.90
29729;DHT22;20055;51.498;11.960;2024-01-30T11:20:14;10.80;99.90
29729;DHT22;20055;51.498;11.960;2024-01-30T11:22:48;10.80;99.90
29729;DHT22;20055;51.498;11.960;2024-01-30T11:25:15;10.90;99.90
29729;DHT22;20055;51.498;11.960;2024-01-30T11:27:42;11.20;99.90
29729;DHT22;20055;51.498;11.960;2024-01-30T11:30:10;11.10;99.90
29729;DHT22;20055;51.498;11.960;2024-01-30T11:32:36;11.20;99.90
29729;DHT22;20055;51.498;11.960;2024-01-30T11:35:04;11.20;99.90
29729;DHT22;20055;51.498;11.960;2024-01-30T11:37:36;11.40;99.90
29729;DHT22;20055;51.498;11.960;2024-01-30T11:40:04;11.30;99.90
29729;DHT22;20055;51.498;11.960;2024-01-30T11:42:30;11.20;99.90
29729;DHT22;20055;51.498;11.960;2024-01-30T11:45:02;11.20;99.90
29729;DHT22;20055;51.498;11.960;2024-01-30T11:47:29;11.20;99.90
29729;DHT22;20055;51.498;11.960;2024-01-30T11:49:55;11.20;99.90
29729;DHT22;20055;51.498;11.960;2024-01-30T11:52:22;11.20;99.90
29729;DHT22;20055;51.498;11.960;2024-01-30T11:54:48;11.30;99.90
29729;DHT22;20055;51.498;11.960;2024-01-30T11:57:14;11.20;99.90
29729;DHT22;20055;51.498;11.960;2024-01-30T11:59:41;11.30;99.90
29729;DHT22;20055;51.498;11.960;2024-01-30T12:02:07;11.50;99.90
29729;DHT22;20055;51.498;11.960;2024-01-30T12:04:33;11.70;99.90
29729;DHT22;20055;51.498;11.960;2024-01-30T12:07:00;11.90;99.90
29729;DHT22;20055;51.498;11.960;2024-01-30T12:09:26;11.90;99.90
29729;DHT22;20055;51.498;11.960;2024-01-30T12:11:53;12.00;99.90
29729;DHT22;20055;51.498;11.960;2024-01-30T12:14:20;12.20;99.90
29729;DHT22;20055;51.498;11.960;2024-01-30T12:16:48;12.40;99.90
29729;DHT22;20055;51.498;11.960;2024-01-30T12:19:25;12.40;99.90
29729;DHT22;20055;51.498;11.960;2024-01-30T12:21:56;12.50;99.90
29729;DHT22;20055;51.498;11.960;2024-01-30T12:24:26;12.60;99.90
29729;DHT22;20055;51.498;11.960;2024-01-30T12:26:59;12.70;99.90
29729;DHT22;20055;51.498;11.960;2024-01-30T12:29:26;12.70;99.90
29729;DHT22;20055;51.498;11.960;2024-01-30T12:31:56;12.60;99.90
29729;DHT22;20055;51.498;11.960;2024-01-30T12:34:25;12.40;99.90
29729;DHT22;20055;51.498;11.960;2024-01-30T12:36:51;12.30;99.90
29729;DHT22;20055;51.498;11.960;2024-01-30T12:39:17;12.20;99.90
29729;DHT22;20055;51.498;11.960;2024-01-30T12:41:44;12.30;99.90
29729;DHT22;20055;51.498;11.960;2024-01-30T12:44:10;12.40;99.90
29729;DHT22;20055;51.498;11.960;2024-01-30T12:46:37;12.50;99.90
29729;DHT22;20055;51.498;11.960;2024-01-30T12:49:03;12.60;99.90
29729;DHT22;20055;51.498;11.960;2024-01-30T12:51:29;12.70;99.90
29729;DHT22;20055;51.498;11.960;2024-01-30T12:53:55;12.70;99.90
29729;DHT22;20055;51.498;11.960;2024-01-30T12:56:22;12.70;99.90
29729;DHT22;20055;51.498;11.960;2024-01-30T12:58:48;12.50;99.90
29729;DHT22;20055;51.498;11.960;2024-01-30T13:01:15;12.40;99.90
29729;DHT22;20055;51.498;11.960;2024-01-30T13:03:41;12.50;99.90
29729;DHT22;20055;51.498;11.960;2024-01-30T13:06:07;12.40;99.90
29729;DHT22;20055;51.498;11.960;2024-01-30T13:08:34;12.30;99.90
29729;DHT22;20055;51.498;11.960;2024-01-30T13:11:00;12.20;99.90
29729;DHT22;20055;51.498;11.960;2024-01-30T13:13:26;12.00;99.90
29729;DHT22;20055;51.498;11.960;2024-01-30T13:15:52;12.00;99.90
29729;DHT22;20055;51.498;11.960;2024-01-30T13:18:18;12.00;99.90
29729;DHT22;20055;51.498;11.960;2024-01-30T13:20:44;12.10;99.90
29729;DHT22;20055;51.498;11.960;2024-01-30T13:23:11;12.10;99.90
29729;DHT22;20055;51.498;11.960;2024-01-30T13:25:37;12.00;99.90
29729;DHT22;20055;51.498;11.960;2024-01-30T13:28:03;11.90;99.90
29729;DHT22;20055;51.498;11.960;2024-01-30T13:30:30;12.00;99.90
29729;DHT22;20055;51.498;11.960;2024-01-30T13:32:57;12.00;99.90
29729;DHT22;20055;51.498;11.960;2024-01-30T13:35:23;12.00;99.90
29729;DHT22;20055;51.498;11.960;2024-01-30T13:37:50;11.90;99.90
29729;DHT22;20055;51.498;11.960;2024-01-30T13:40:16;11.90;99.90
29729;DHT22;20055;51.498;11.960;2024-01-30T13:42:43;11.90;99.90
29729;DHT22;20055;51.498;11.960;2024-01-30T13:45:09;11.90;99.90
29729;DHT22;20055;51.498;11.960;2024-01-30T13:47:38;11.90;99.90
29729;DHT22;20055;51.498;11.960;2024-01-30T13:50:05;12.00;99.90
29729;DHT22;20055;51.498;11.960;2024-01-30T13:52:31;12.00;99.90
29729;DHT22;20055;51.498;11.960;2024-01-30T13:54:58;11.90;99.90
29729;DHT22;20055;51.498;11.960;2024-01-30T13:57:24;11.90;99.90
29729;DHT22;20055;51.498;11.960;2024-01-30T13:59:50;12.00;99.90
29729;DHT22;20055;51.498;11.960;2024-01-30T14:02:17;11.90;99.90
29729;DHT22;20055;51.498;11.960;2024-01-30T14:04:43;11.90;99.90
29729;DHT22;20055;51.498;11.960;2024-01-30T14:07:09;11.90;99.90
29729;DHT22;20055;51.498;11.960;2024-01-30T14:09:36;11.90;99.90
29729;DHT22;20055;51.498;11.960;2024-01-30T14:12:02;12.00;99.90
29729;DHT22;20055;51.498;11.960;2024-01-30T14:14:29;12.10;99.90
29729;DHT22;20055;51.498;11.960;2024-01-30T14:16:55;12.20;99.90
29729;DHT22;20055;51.498;11.960;2024-01-30T14:19:21;12.10;99.90
29729;DHT22;20055;51.498;11.960;2024-01-30T14:21:48;12.00;99.90
29729;DHT22;20055;51.498;11.960;2024-01-30T14:24:14;12.00;99.90
29729;DHT22;20055;51.498;11.960;2024-01-30T14:26:40;12.00;99.90
29729;DHT22;20055;51.498;11.960;2024-01-30T14:29:06;11.90;99.90
29729;DHT22;20055;51.498;11.960;2024-01-30T14:31:33;12.00;99.90
29729;DHT22;20055;51.498;11.960;2024-01-30T14:33:59;11.90;99.90
29729;DHT22;20055;51.498;11.960;2024-01-30T14:36:26;11.80;99.90
29729;DHT22;20055;51.498;11.960;2024-01-30T14:38:54;11.70;99.90
29729;DHT22;20055;51.498;11.960;2024-01-30T14:41:21;11.60;99.90
29729;DHT22;20055;51.498;11.960;2024-01-30T14:43:47;11.60;99.90
29729;DHT22;20055;51.498;11.960;2024-01-30T14:46:13;11.70;99.90
29729;DHT22;20055;51.498;11.960;2024-01-30T14:48:39;11.70;99.90
29729;DHT22;20055;51.498;11.960;2024-01-30T14:51:06;11.50;99.90
29729;DHT22;20055;51.498;11.960;2024-01-30T14:53:32;11.60;99.90
29729;DHT22;20055;51.498;11.960;2024-01-30T14:55:58;11.60;99.90
29729;DHT22;20055;51.498;11.960;2024-01-30T14:58:25;11.50;99.90
29729;DHT22;20055;51.498;11.960;2024-01-30T15:00:52;11.50;99.90
29729;DHT22;20055;51.498;11.960;2024-01-30T15:03:18;11.40;99.90
29729;DHT22;20055;51.498;11.960;2024-01-30T15:05:44;11.50;99.90
29729;DHT22;20055;51.498;11.960;2024-01-30T15:08:10;11.40;99.90
29729;DHT22;20055;51.498;11.960;2024-01-30T15:10:37;11.40;99.90
29729;DHT22;20055;51.498;11.960;2024-01-30T15:13:03;11.40;99.90
29729;DHT22;20055;51.498;11.960;2024-01-30T15:15:30;11.30;99.90
29729;DHT22;20055;51.498;11.960;2024-01-30T15:17:57;11.30;99.90
29729;DHT22;20055;51.498;11.960;2024-01-30T15:20:24;11.30;99.90
29729;DHT22;20055;51.498;11.960;2024-01-30T15:22:50;11.10;99.90
29729;DHT22;20055;51.498;11.960;2024-01-30T15:25:16;11.00;99.90